Time;durP1;ratioP1;P1;durP2;ratioP2;P2;SDS_P1;SDS_P2;PMS_P1;PMS_P2;Temp;Humidity;BMP_temperature;BMP_pressure;BME280_temperature;BME280_humidity;BME280_pressure;Samples;Min_cycle;Max_cycle;Signal;HPM_P1;HPM_P2
2022/10/28 00:01:11;;;;;;;10.27;6.47;;;18.00;99.90;;;;;;5055316;28;20097;-89
2022/10/28 00:03:39;;;;;;;16.42;7.50;;;18.00;99.90;;;;;;5041238;28;20592;-90
2022/10/28 00:06:07;;;;;;;11.88;6.53;;;18.00;99.90;;;;;;5041070;28;20089;-89
2022/10/28 00:08:33;;;;;;;12.10;6.60;;;17.90;99.90;;;;;;5040826;28;20031;-90
2022/10/28 00:11:27;;;;;;;13.20;6.63;;;17.90;99.90;;;;;;5058291;28;20014;-89
2022/10/28 00:13:55;;;;;;;11.52;6.28;;;17.90;99.90;;;;;;5038110;28;20040;-89
2022/10/28 00:16:23;;;;;;;14.02;7.20;;;17.90;99.90;;;;;;5024602;28;20014;-90
2022/10/28 00:18:52;;;;;;;16.48;6.63;;;17.80;99.90;;;;;;5022873;28;20030;-89
2022/10/28 00:21:21;;;;;;;13.02;6.20;;;17.80;99.90;;;;;;5007300;28;20026;-90
2022/10/28 00:23:49;;;;;;;16.38;6.65;;;17.70;99.90;;;;;;5006692;28;20018;-90
2022/10/28 00:26:21;;;;;;;12.63;6.63;;;17.70;99.90;;;;;;4993739;28;20121;-90
2022/10/28 00:28:53;;;;;;;16.17;6.75;;;17.70;99.90;;;;;;5008497;28;20036;-91
2022/10/28 00:31:20;;;;;;;17.10;6.97;;;17.60;99.90;;;;;;5021368;28;20046;-91
2022/10/28 00:33:46;;;;;;;12.30;7.13;;;17.60;99.90;;;;;;5034649;28;20013;-89
2022/10/28 00:36:16;;;;;;;15.80;6.70;;;17.60;99.90;;;;;;5023330;28;20032;-90
2022/10/28 00:38:44;;;;;;;11.38;7.18;;;17.50;99.90;;;;;;5033692;28;20078;-90
2022/10/28 00:41:11;;;;;;;15.95;6.90;;;17.50;99.90;;;;;;5040403;28;20018;-90
2022/10/28 00:43:44;;;;;;;15.65;6.85;;;17.50;99.90;;;;;;5022534;28;20037;-90
2022/10/28 00:46:37;;;;;;;16.67;6.53;;;17.40;99.90;;;;;;5037706;28;20093;-87
2022/10/28 00:49:22;;;;;;;12.38;6.60;;;17.40;99.90;;;;;;5039901;28;20022;-88
2022/10/28 00:51:52;;;;;;;12.13;6.90;;;17.40;99.90;;;;;;5040848;28;20041;-89
2022/10/28 00:54:19;;;;;;;13.83;6.70;;;17.40;99.90;;;;;;5040824;28;20017;-86
2022/10/28 00:56:50;;;;;;;17.17;7.75;;;17.30;99.90;;;;;;5022752;28;20271;-88
2022/10/28 00:59:24;;;;;;;13.68;6.97;;;17.30;99.90;;;;;;5037747;28;20366;-89
2022/10/28 01:01:50;;;;;;;14.30;7.38;;;17.30;99.90;;;;;;5026664;28;20088;-89
2022/10/28 01:04:16;;;;;;;12.93;7.25;;;17.20;99.90;;;;;;5008038;28;20432;-89
2022/10/28 01:06:43;;;;;;;11.98;7.03;;;17.20;99.90;;;;;;5025681;28;20026;-88
2022/10/28 01:09:09;;;;;;;14.52;7.07;;;17.20;99.90;;;;;;5023790;28;20033;-89
2022/10/28 01:11:55;;;;;;;11.60;6.65;;;17.20;99.90;;;;;;5006563;28;20470;-89
2022/10/28 01:14:59;;;;;;;13.30;6.40;;;17.20;99.90;;;;;;5023751;28;20093;-88
2022/10/28 01:17:43;;;;;;;14.95;6.65;;;17.20;99.90;;;;;;5041280;28;20022;-89
2022/10/28 01:20:21;;;;;;;11.23;7.05;;;17.10;99.90;;;;;;5024373;28;20029;-88
2022/10/28 01:22:51;;;;;;;12.35;6.93;;;17.10;99.90;;;;;;5021973;28;20040;-88
2022/10/28 01:25:36;;;;;;;14.32;7.55;;;17.10;99.90;;;;;;5036432;28;20488;-88
2022/10/28 01:28:20;;;;;;;16.05;7.55;;;17.10;99.90;;;;;;5037770;28;20112;-89
2022/10/28 01:30:55;;;;;;;14.23;7.47;;;17.00;99.90;;;;;;5019269;28;20113;-88
2022/10/28 01:33:33;;;;;;;14.27;7.53;;;17.00;99.90;;;;;;5034409;28;20029;-89
2022/10/28 01:36:16;;;;;;;13.68;7.50;;;17.00;99.90;;;;;;5018684;28;20025;-88
2022/10/28 01:39:20;;;;;;;15.15;7.75;;;17.00;99.90;;;;;;5020737;28;20025;-88
2022/10/28 01:42:13;;;;;;;14.70;7.00;;;17.00;99.90;;;;;;5016196;28;20138;-89
2022/10/28 01:44:59;;;;;;;12.20;6.90;;;17.00;99.90;;;;;;5020477;28;20489;-88
2022/10/28 01:47:27;;;;;;;13.23;6.70;;;16.90;99.90;;;;;;5020223;28;20033;-88
2022/10/28 01:49:59;;;;;;;16.30;7.30;;;17.00;99.90;;;;;;5038395;28;20048;-88
2022/10/28 01:52:28;;;;;;;17.00;6.90;;;16.90;99.90;;;;;;5037590;28;20025;-88
2022/10/28 01:55:19;;;;;;;14.35;6.75;;;16.90;99.90;;;;;;5020298;28;20022;-88
2022/10/28 01:57:46;;;;;;;13.13;7.33;;;16.90;99.90;;;;;;5019613;28;20080;-89
2022/10/28 02:00:12;;;;;;;16.05;7.47;;;16.90;99.90;;;;;;5005288;28;20033;-88
2022/10/28 02:02:39;;;;;;;16.55;8.00;;;16.90;99.90;;;;;;5005592;28;20033;-88
2022/10/28 02:05:42;;;;;;;14.55;6.78;;;16.90;99.90;;;;;;5004571;28;20022;-87
2022/10/28 02:08:16;;;;;;;14.20;7.90;;;16.90;99.90;;;;;;5038483;28;20033;-88
2022/10/28 02:10:54;;;;;;;9.77;6.82;;;16.80;99.90;;;;;;5023073;28;20053;-86
2022/10/28 02:13:26;;;;;;;25.52;8.02;;;16.80;99.90;;;;;;5024613;28;20033;-88
2022/10/28 02:16:14;;;;;;;11.82;7.10;;;16.80;99.90;;;;;;5037548;28;20034;-87
2022/10/28 02:18:49;;;;;;;14.40;6.90;;;16.80;99.90;;;;;;5020556;28;20483;-88
2022/10/28 02:21:33;;;;;;;11.60;7.47;;;16.70;99.90;;;;;;5020606;28;20029;-88
2022/10/28 02:24:28;;;;;;;17.27;7.05;;;16.70;99.90;;;;;;5019322;28;20060;-88
2022/10/28 02:27:11;;;;;;;11.73;7.07;;;16.70;99.90;;;;;;5020490;28;20074;-88
2022/10/28 02:29:45;;;;;;;13.88;7.15;;;16.70;99.90;;;;;;5020544;28;20156;-89
2022/10/28 02:32:16;;;;;;;15.20;7.15;;;16.60;99.90;;;;;;5022190;28;20045;-89
2022/10/28 02:34:44;;;;;;;;;;;16.60;99.90;;;;;;5019608;28;20116;-88
2022/10/28 02:37:20;;;;;;;16.80;7.72;;;16.60;99.90;;;;;;5021561;28;19905;-88
2022/10/28 02:39:50;;;;;;;14.10;7.18;;;16.60;99.90;;;;;;5037636;28;20055;-86
2022/10/28 02:42:39;;;;;;;13.93;7.20;;;16.60;99.90;;;;;;5020919;28;20026;-88
2022/10/28 02:45:20;;;;;;;15.90;7.18;;;16.60;99.90;;;;;;5037847;28;20491;-88
2022/10/28 02:48:21;;;;;;;16.60;7.57;;;16.50;99.90;;;;;;5036594;28;20041;-88
2022/10/28 02:50:52;;;;;;;9.25;6.85;;;16.50;99.90;;;;;;4986525;28;20037;-88
2022/10/28 02:53:21;;;;;;;;;;;16.50;99.90;;;;;;5020685;28;20032;-87
2022/10/28 02:55:51;;;;;;;11.88;7.38;;;16.50;99.90;;;;;;5037363;28;19962;-88
2022/10/28 02:58:17;;;;;;;12.07;7.65;;;16.40;99.90;;;;;;5036653;28;20033;-88
2022/10/28 03:00:44;;;;;;;17.40;8.15;;;16.40;99.90;;;;;;5022814;28;20029;-90
2022/10/28 03:03:10;;;;;;;12.23;6.65;;;16.40;99.90;;;;;;5008818;28;20075;-88
2022/10/28 03:05:35;;;;;;;18.80;8.20;;;16.40;99.90;;;;;;5021378;28;20033;-89
2022/10/28 03:08:01;;;;;;;14.38;7.20;;;16.40;99.90;;;;;;5003105;28;20601;-89
2022/10/28 03:10:27;;;;;;;16.30;7.50;;;16.40;99.90;;;;;;5009330;28;20038;-89
2022/10/28 03:12:52;;;;;;;16.10;6.60;;;16.40;99.90;;;;;;5021252;28;20077;-89
2022/10/28 03:15:18;;;;;;;14.82;7.20;;;16.40;99.90;;;;;;5002860;28;20033;-89
2022/10/28 03:17:44;;;;;;;15.32;7.15;;;16.30;99.90;;;;;;5003029;28;20103;-90
2022/10/28 03:20:10;;;;;;;12.18;6.75;;;16.30;99.90;;;;;;5002820;28;20041;-89
2022/10/28 03:22:36;;;;;;;15.95;7.22;;;16.30;99.90;;;;;;5018783;28;20018;-89
2022/10/28 03:25:02;;;;;;;13.40;7.43;;;16.30;99.90;;;;;;5037277;28;20025;-89
2022/10/28 03:27:28;;;;;;;15.57;6.97;;;16.30;99.90;;;;;;5020352;28;20392;-89
2022/10/28 03:29:54;;;;;;;16.23;6.70;;;16.30;99.90;;;;;;5021867;28;20028;-89
2022/10/28 03:32:20;;;;;;;15.85;7.32;;;16.20;99.90;;;;;;5038395;28;20570;-89
2022/10/28 03:34:46;;;;;;;12.75;6.55;;;16.30;99.90;;;;;;5003097;28;20132;-89
2022/10/28 03:37:12;;;;;;;11.73;6.45;;;16.20;99.90;;;;;;4986278;28;20473;-88
2022/10/28 03:39:38;;;;;;;11.50;6.65;;;16.20;99.90;;;;;;5018827;28;20432;-89
2022/10/28 03:42:04;;;;;;;13.65;6.93;;;16.20;99.90;;;;;;5019226;28;20022;-89
2022/10/28 03:44:29;;;;;;;14.70;7.55;;;16.20;99.90;;;;;;5018368;28;20029;-90
2022/10/28 03:46:55;;;;;;;17.92;6.80;;;16.20;99.90;;;;;;5018115;28;20031;-90
2022/10/28 03:49:21;;;;;;;12.23;6.82;;;16.20;99.90;;;;;;5001307;28;20358;-89
2022/10/28 03:51:46;;;;;;;11.90;6.53;;;16.20;99.90;;;;;;5018195;28;20100;-90
2022/10/28 03:54:12;;;;;;;15.48;6.55;;;16.10;99.90;;;;;;5018307;28;20028;-89
2022/10/28 03:56:39;;;;;;;16.35;8.43;;;16.10;99.90;;;;;;5018732;28;20025;-89
2022/10/28 03:59:07;;;;;;;12.52;7.38;;;16.10;99.90;;;;;;4987190;28;20030;-89
2022/10/28 04:01:33;;;;;;;13.15;7.05;;;16.10;99.90;;;;;;5002339;28;20080;-89
2022/10/28 04:03:59;;;;;;;16.23;7.05;;;16.00;99.90;;;;;;5002182;28;20449;-89
2022/10/28 04:06:24;;;;;;;14.88;7.70;;;16.00;99.90;;;;;;5018994;28;20083;-90
2022/10/28 04:08:50;;;;;;;15.93;7.30;;;16.00;99.90;;;;;;5002552;28;20082;-89
2022/10/28 04:11:16;;;;;;;14.07;6.95;;;16.00;99.90;;;;;;5001587;28;20037;-89
2022/10/28 04:13:41;;;;;;;9.38;6.35;;;16.00;99.90;;;;;;5001725;28;20043;-89
2022/10/28 04:16:07;;;;;;;12.52;6.72;;;16.00;99.90;;;;;;5001303;28;20033;-89
2022/10/28 04:18:34;;;;;;;12.80;6.97;;;16.00;99.90;;;;;;5018455;28;20039;-88
2022/10/28 04:21:00;;;;;;;12.88;6.50;;;15.90;99.90;;;;;;4986690;28;20041;-88
2022/10/28 04:23:26;;;;;;;13.65;6.53;;;16.00;99.90;;;;;;4985736;28;20029;-89
2022/10/28 04:25:53;;;;;;;21.83;7.20;;;15.90;99.90;;;;;;5003856;28;20029;-89
2022/10/28 04:28:20;;;;;;;13.10;7.38;;;15.90;99.90;;;;;;5003817;28;20037;-88
2022/10/28 04:30:46;;;;;;;12.18;6.93;;;15.90;99.90;;;;;;5019809;28;20404;-89
2022/10/28 04:33:12;;;;;;;12.10;6.57;;;15.90;99.90;;;;;;5006020;28;20033;-87
2022/10/28 04:35:41;;;;;;;16.77;8.07;;;15.90;99.90;;;;;;5039157;28;20026;-88
2022/10/28 04:38:10;;;;;;;10.38;6.10;;;15.90;99.90;;;;;;5055787;28;20030;-89
2022/10/28 04:40:35;;;;;;;11.98;6.75;;;15.80;99.90;;;;;;5021267;28;20021;-89
2022/10/28 04:43:01;;;;;;;16.88;6.90;;;15.80;99.90;;;;;;5018108;28;20025;-89
2022/10/28 04:45:27;;;;;;;11.70;6.47;;;15.80;99.90;;;;;;5001564;28;20389;-89
2022/10/28 04:48:00;;;;;;;14.50;6.90;;;15.80;99.90;;;;;;4986130;28;20033;-89
2022/10/28 04:50:26;;;;;;;12.68;6.13;;;15.80;99.90;;;;;;5017694;28;20029;-89
2022/10/28 04:52:52;;;;;;;14.95;6.60;;;15.70;99.90;;;;;;5018043;28;20022;-90
2022/10/28 04:55:19;;;;;;;11.35;5.97;;;15.70;99.90;;;;;;5001605;28;20032;-88
2022/10/28 04:57:55;;;;;;;11.95;7.03;;;15.70;99.90;;;;;;5018087;28;20037;-89
2022/10/28 05:00:22;;;;;;;13.38;6.10;;;15.70;99.90;;;;;;5018498;28;20082;-89
2022/10/28 05:02:48;;;;;;;14.00;6.72;;;15.70;99.90;;;;;;5002476;28;20111;-89
2022/10/28 05:05:14;;;;;;;10.73;6.32;;;15.70;99.90;;;;;;5018569;28;20417;-89
2022/10/28 05:07:39;;;;;;;15.93;7.10;;;15.70;99.90;;;;;;5018496;28;20025;-88
2022/10/28 05:10:05;;;;;;;15.13;7.40;;;15.70;99.90;;;;;;5019093;28;20068;-89
2022/10/28 05:12:31;;;;;;;15.55;6.72;;;15.70;99.90;;;;;;5022006;28;20071;-89
2022/10/28 05:14:57;;;;;;;12.25;6.22;;;15.60;99.90;;;;;;5006862;28;20605;-90
2022/10/28 05:17:22;;;;;;;11.90;6.18;;;15.60;99.90;;;;;;5024067;28;20029;-89
2022/10/28 05:19:48;;;;;;;15.25;6.30;;;15.60;99.90;;;;;;5021338;28;20071;-89
2022/10/28 05:22:13;;;;;;;12.07;6.15;;;15.60;99.90;;;;;;5041752;28;20021;-90
2022/10/28 05:24:39;;;;;;;13.50;6.63;;;15.60;99.90;;;;;;5040935;28;20786;-90
2022/10/28 05:27:05;;;;;;;12.85;6.28;;;15.60;99.90;;;;;;5042751;28;20017;-89
2022/10/28 05:29:31;;;;;;;17.38;6.38;;;15.60;99.90;;;;;;5040236;28;20168;-89
2022/10/28 05:31:56;;;;;;;19.08;6.82;;;15.60;99.90;;;;;;5058077;28;20048;-90
2022/10/28 05:34:22;;;;;;;10.23;6.00;;;15.50;99.90;;;;;;5041580;28;20028;-89
2022/10/28 05:36:49;;;;;;;12.35;5.57;;;15.50;99.90;;;;;;5040335;28;20039;-89
2022/10/28 05:39:17;;;;;;;14.57;6.30;;;15.50;99.90;;;;;;5058348;28;20068;-89
2022/10/28 05:41:43;;;;;;;14.13;5.80;;;15.50;99.90;;;;;;5023254;28;20068;-88
2022/10/28 05:44:09;;;;;;;13.45;5.75;;;15.50;99.90;;;;;;5023547;28;20025;-88
2022/10/28 05:46:34;;;;;;;12.90;5.60;;;15.50;99.90;;;;;;5023218;28;20124;-88
2022/10/28 05:49:00;;;;;;;11.60;5.60;;;15.50;99.90;;;;;;5040411;28;20020;-88
2022/10/28 05:51:26;;;;;;;10.65;5.88;;;15.50;99.90;;;;;;5039771;28;20025;-88
2022/10/28 05:53:51;;;;;;;14.52;5.78;;;15.40;99.90;;;;;;5023834;28;20075;-88
2022/10/28 05:56:18;;;;;;;9.95;5.43;;;15.50;99.90;;;;;;5039900;28;20029;-88
2022/10/28 05:58:44;;;;;;;8.38;4.90;;;15.50;99.90;;;;;;5036019;28;20039;-88
2022/10/28 06:01:10;;;;;;;11.75;5.88;;;15.40;99.90;;;;;;5019692;28;20026;-88
2022/10/28 06:03:36;;;;;;;16.45;5.22;;;15.40;99.90;;;;;;5036074;28;20022;-88
2022/10/28 06:06:08;;;;;;;17.50;5.63;;;15.50;99.90;;;;;;5036435;28;20495;-88
2022/10/28 06:08:37;;;;;;;16.60;5.28;;;15.50;99.90;;;;;;5037204;28;20507;-88
2022/10/28 06:11:27;;;;;;;51.22;7.57;;;15.50;99.90;;;;;;5036140;28;20026;-89
2022/10/28 06:13:53;;;;;;;19.02;5.82;;;15.50;99.90;;;;;;5036195;28;20029;-88
2022/10/28 06:16:19;;;;;;;15.25;5.35;;;15.50;99.90;;;;;;5036567;28;20025;-89
2022/10/28 06:18:44;;;;;;;9.80;4.75;;;15.50;99.90;;;;;;5036526;28;20120;-87
2022/10/28 06:21:10;;;;;;;17.23;4.65;;;15.60;99.90;;;;;;5047954;28;20025;-88
2022/10/28 06:23:36;;;;;;;15.30;5.05;;;15.60;99.90;;;;;;5055342;28;20029;-88
2022/10/28 06:26:03;;;;;;;11.23;4.80;;;15.60;99.90;;;;;;5051736;28;20025;-88
2022/10/28 06:28:29;;;;;;;14.65;5.20;;;15.60;99.90;;;;;;5035844;28;20037;-89
2022/10/28 06:31:04;;;;;;;17.08;5.00;;;15.70;99.90;;;;;;5045013;28;20472;-86
2022/10/28 06:33:30;;;;;;;18.02;5.05;;;15.70;99.90;;;;;;5026435;28;20026;-89
2022/10/28 06:35:57;;;;;;;13.75;4.35;;;15.80;99.90;;;;;;5019385;28;20047;-89
2022/10/28 06:38:23;;;;;;;14.27;4.45;;;15.80;99.90;;;;;;5041056;28;20032;-89
2022/10/28 06:40:49;;;;;;;12.18;5.30;;;15.80;99.90;;;;;;5042384;28;20033;-88
2022/10/28 06:43:15;;;;;;;10.70;4.90;;;15.80;99.90;;;;;;5029312;28;20060;-89
2022/10/28 06:45:41;;;;;;;12.98;5.55;;;15.90;99.90;;;;;;5024956;28;20135;-88
2022/10/28 06:48:08;;;;;;;11.50;4.40;;;15.90;99.90;;;;;;5023574;28;20128;-89
2022/10/28 06:50:34;;;;;;;11.80;4.65;;;15.90;99.90;;;;;;5005550;28;20022;-88
2022/10/28 06:53:00;;;;;;;16.25;5.13;;;15.90;99.90;;;;;;5028994;28;20041;-90
2022/10/28 06:55:26;;;;;;;12.85;5.10;;;16.00;99.90;;;;;;5039587;28;20499;-90
2022/10/28 06:57:53;;;;;;;17.90;5.18;;;16.00;99.90;;;;;;5023390;28;20114;-92
2022/10/28 07:00:19;;;;;;;10.73;4.90;;;16.00;99.90;;;;;;5039487;28;20032;-87
2022/10/28 07:02:51;;;;;;;15.55;4.88;;;16.10;99.90;;;;;;5039098;28;20111;-91
2022/10/28 07:05:19;;;;;;;14.40;5.15;;;16.10;99.90;;;;;;5030208;28;20108;-88
2022/10/28 07:07:48;;;;;;;10.82;5.13;;;16.10;99.90;;;;;;5033219;28;20033;-88
2022/10/28 07:10:16;;;;;;;11.82;4.63;;;16.20;99.90;;;;;;5056760;28;20053;-87
2022/10/28 07:12:42;;;;;;;13.90;5.07;;;16.20;99.90;;;;;;5037088;28;20477;-89
2022/10/28 07:15:09;;;;;;;13.75;4.65;;;16.20;99.90;;;;;;5012829;28;20053;-89
2022/10/28 07:17:35;;;;;;;17.20;5.28;;;16.20;99.90;;;;;;5036675;28;20033;-87
2022/10/28 07:20:00;;;;;;;19.80;5.22;;;16.30;99.90;;;;;;5055371;28;20493;-88
2022/10/28 07:22:29;;;;;;;16.38;4.88;;;16.30;99.90;;;;;;5037538;28;20017;-89
2022/10/28 07:24:54;;;;;;;14.13;5.03;;;16.30;99.90;;;;;;5002183;28;20124;-89
2022/10/28 07:27:20;;;;;;;22.75;5.38;;;16.40;99.90;;;;;;5036989;28;20103;-84
2022/10/28 07:29:45;;;;;;;10.82;4.97;;;16.40;99.90;;;;;;5054481;28;20029;-89
2022/10/28 07:32:11;;;;;;;11.77;4.90;;;16.40;99.90;;;;;;5034772;28;20049;-87
2022/10/28 07:34:37;;;;;;;12.48;5.53;;;16.50;99.90;;;;;;5016939;28;20097;-86
2022/10/28 07:37:04;;;;;;;13.57;4.80;;;16.50;99.90;;;;;;5031478;28;20021;-87
2022/10/28 07:39:30;;;;;;;12.68;5.05;;;16.50;99.90;;;;;;5054965;28;20037;-89
2022/10/28 07:41:56;;;;;;;15.50;5.00;;;16.60;99.90;;;;;;5018279;28;20029;-87
2022/10/28 07:44:22;;;;;;;15.27;4.93;;;16.60;99.90;;;;;;5029735;28;20021;-88
2022/10/28 07:46:47;;;;;;;10.13;4.20;;;16.60;99.90;;;;;;5011377;28;20033;-89
2022/10/28 07:49:36;;;;;;;15.88;5.20;;;16.70;99.90;;;;;;5032769;28;20025;-94
2022/10/28 07:52:02;;;;;;;13.82;5.82;;;16.70;99.90;;;;;;5027963;28;20026;-89
2022/10/28 07:54:28;;;;;;;11.63;4.60;;;16.80;99.90;;;;;;5017985;28;20027;-89
2022/10/28 07:56:58;;;;;;;12.65;5.22;;;16.80;99.90;;;;;;5017469;28;20053;-92
2022/10/28 07:59:27;;;;;;;13.07;4.60;;;16.80;99.90;;;;;;5036000;28;20040;-93
2022/10/28 08:01:58;;;;;;;11.80;5.35;;;16.90;99.90;;;;;;5017522;28;20026;-91
2022/10/28 08:04:44;;;;;;;13.63;4.80;;;16.90;99.90;;;;;;5002675;28;20092;-92
2022/10/28 08:07:18;;;;;;;20.80;7.03;;;16.90;99.90;;;;;;5031511;28;20064;-89
2022/10/28 08:10:03;;;;;;;;;;;;;;;;;;;;;
2022/10/28 08:12:45;;;;;;;;;;;;;;;;;;;;;
2022/10/28 08:15:13;;;;;;;11.63;5.53;;;17.10;99.90;;;;;;5056555;28;20029;-91
2022/10/28 08:18:04;;;;;;;13.52;5.07;;;17.10;99.90;;;;;;5038235;28;20057;-94
2022/10/28 08:23:50;;;;;;;;;;;17.20;99.90;;;;;;5028599;28;20043;-94
2022/10/28 08:26:16;;;;;;;16.35;5.35;;;17.30;99.90;;;;;;5037589;28;19905;-88
2022/10/28 08:28:45;;;;;;;15.93;4.90;;;17.30;99.90;;;;;;5036969;28;20016;-88
2022/10/28 08:31:12;;;;;;;12.90;4.57;;;17.40;99.90;;;;;;5020227;28;20057;-90
2022/10/28 08:33:58;;;;;;;15.35;4.93;;;17.50;99.90;;;;;;5036472;28;20040;-88
2022/10/28 08:36:33;;;;;;;14.38;4.53;;;17.50;99.90;;;;;;5024921;28;20503;-87
2022/10/28 08:39:00;;;;;;;18.80;6.25;;;17.50;99.90;;;;;;5017483;28;20029;-88
2022/10/28 08:42:00;;;;;;;16.23;5.88;;;17.60;99.90;;;;;;5035880;28;20024;-88
2022/10/28 08:44:43;;;;;;;12.57;5.10;;;17.70;99.90;;;;;;5035266;28;20112;-89
2022/10/28 08:47:45;;;;;;;15.23;5.03;;;17.70;99.90;;;;;;5049144;28;20035;-87
2022/10/28 08:50:18;;;;;;;15.18;5.60;;;17.70;99.90;;;;;;5017101;28;20469;-87
2022/10/28 08:52:50;;;;;;;16.48;5.45;;;17.80;99.90;;;;;;5036132;28;20108;-89
2022/10/28 08:55:30;;;;;;;17.17;5.00;;;17.80;99.90;;;;;;5024681;28;20021;-88
2022/10/28 08:58:11;;;;;;;13.65;5.13;;;17.90;99.90;;;;;;5036053;28;20025;-87
2022/10/28 09:00:39;;;;;;;12.18;5.38;;;18.00;99.90;;;;;;5031982;28;20077;-88
2022/10/28 09:03:10;;;;;;;20.45;6.10;;;18.00;99.90;;;;;;5025048;28;20496;-90
2022/10/28 09:05:49;;;;;;;15.57;6.35;;;18.10;99.90;;;;;;5016949;28;20033;-91
2022/10/28 09:08:40;;;;;;;15.57;5.20;;;18.10;99.90;;;;;;5035673;28;20095;-91
2022/10/28 09:11:29;;;;;;;;;;;;;;;;;;;;;
2022/10/28 09:13:57;;;;;;;15.45;5.93;;;18.20;99.90;;;;;;5052336;28;20021;-91
2022/10/28 09:16:44;;;;;;;15.43;5.60;;;18.30;99.90;;;;;;5036733;28;20112;-94
2022/10/28 09:19:36;;;;;;;12.38;5.35;;;18.30;99.90;;;;;;5036000;28;20112;-95
2022/10/28 09:22:47;;;;;;;;;;;;;;;;;;;;;
2022/10/28 09:25:47;;;;;;;15.23;6.00;;;18.50;99.90;;;;;;5049620;28;20033;-93
2022/10/28 09:28:53;;;;;;;15.40;5.93;;;18.60;99.90;;;;;;5038015;28;20544;-92
2022/10/28 09:31:39;;;;;;;;;;;;;;;;;;;;;
2022/10/28 09:35:07;;;;;;;11.43;5.22;;;18.80;99.90;;;;;;5035163;28;20584;-93
2022/10/28 09:38:07;;;;;;;14.25;6.18;;;18.90;99.90;;;;;;4939435;29;20028;-96
2022/10/28 09:43:52;;;;;;;15.32;5.25;;;19.10;99.90;;;;;;5025507;28;20034;-93
2022/10/28 09:46:56;;;;;;;15.18;5.60;;;19.10;99.90;;;;;;5018501;28;20033;-92
2022/10/28 09:49:27;;;;;;;20.70;5.43;;;19.20;99.90;;;;;;5002867;28;20481;-92
2022/10/28 09:52:17;;;;;;;16.95;5.75;;;19.30;99.90;;;;;;5033298;28;20065;-90
2022/10/28 09:54:48;;;;;;;19.77;6.45;;;19.30;99.90;;;;;;5017945;28;20028;-92
2022/10/28 09:57:21;;;;;;;27.45;5.97;;;19.40;99.90;;;;;;5021668;28;20044;-90
2022/10/28 09:59:47;;;;;;;22.35;6.10;;;19.40;99.90;;;;;;5034165;28;20017;-87
2022/10/28 10:02:34;;;;;;;13.68;5.40;;;19.50;99.90;;;;;;5059246;28;20025;-89
2022/10/28 10:05:01;;;;;;;18.50;5.20;;;19.60;99.90;;;;;;5047873;28;20044;-90
2022/10/28 10:07:42;;;;;;;12.82;5.28;;;19.70;99.90;;;;;;5029088;28;20026;-90
2022/10/28 10:10:33;;;;;;;12.80;5.32;;;19.70;99.90;;;;;;5041485;28;20025;-90
2022/10/28 10:13:03;;;;;;;18.75;6.57;;;19.80;99.90;;;;;;5027537;28;20087;-90
2022/10/28 10:15:47;;;;;;;14.35;5.20;;;19.80;99.90;;;;;;5039727;28;20037;-92
2022/10/28 10:18:35;;;;;;;;;;;;;;;;;;;;;
2022/10/28 10:21:02;;;;;;;15.75;5.72;;;19.90;99.90;;;;;;5038282;28;20032;-91
2022/10/28 10:23:32;;;;;;;18.27;6.25;;;20.00;99.90;;;;;;5004820;28;20033;-92
2022/10/28 10:26:10;;;;;;;18.07;6.10;;;20.00;99.90;;;;;;5020207;28;20084;-90
2022/10/28 10:28:53;;;;;;;16.52;5.93;;;20.10;99.90;;;;;;5037849;28;20034;-90
2022/10/28 10:31:46;;;;;;;20.70;5.78;;;20.10;99.90;;;;;;5019510;28;20410;-90
2022/10/28 10:34:28;;;;;;;18.70;6.15;;;20.20;99.90;;;;;;5019750;28;20037;-91
2022/10/28 10:37:28;;;;;;;21.70;6.35;;;20.30;99.90;;;;;;5037255;28;20022;-93
2022/10/28 10:43:21;;;;;;;14.00;4.97;;;20.50;99.90;;;;;;4949387;28;20030;-90
2022/10/28 10:45:51;;;;;;;14.57;5.35;;;20.60;99.90;;;;;;4999539;28;20025;-89
2022/10/28 10:48:17;;;;;;;14.68;5.15;;;20.60;99.90;;;;;;5006017;28;20033;-89
2022/10/28 10:50:46;;;;;;;12.68;4.82;;;20.70;99.90;;;;;;5000749;28;20037;-88
2022/10/28 10:53:25;;;;;;;17.55;4.50;;;20.70;99.90;;;;;;5011175;28;20541;-91
2022/10/28 10:55:55;;;;;;;14.77;4.60;;;20.80;99.90;;;;;;5018482;28;20029;-88
2022/10/28 10:58:25;;;;;;;15.13;4.75;;;20.90;99.90;;;;;;5018591;28;20030;-90
2022/10/28 11:00:55;;;;;;;15.63;4.65;;;21.00;99.90;;;;;;5014890;28;20034;-89
2022/10/28 11:03:33;;;;;;;19.92;5.78;;;21.10;99.90;;;;;;5011500;28;20044;-88
2022/10/28 11:06:02;;;;;;;14.93;4.65;;;21.10;99.90;;;;;;5013499;28;20443;-89
2022/10/28 11:08:37;;;;;;;16.30;4.68;;;21.20;99.90;;;;;;4998133;28;20032;-87
2022/10/28 11:11:12;;;;;;;10.80;4.15;;;21.30;99.90;;;;;;4998742;28;20494;-87
2022/10/28 11:13:41;;;;;;;12.10;4.30;;;21.40;99.90;;;;;;4998270;28;20025;-86
2022/10/28 11:16:19;;;;;;;14.10;4.05;;;21.50;99.90;;;;;;4994466;28;20056;-86
2022/10/28 11:18:49;;;;;;;16.88;5.07;;;21.50;99.90;;;;;;5035784;28;20128;-88
2022/10/28 11:21:44;;;;;;;16.98;5.32;;;21.60;99.90;;;;;;5017892;28;20083;-87
2022/10/28 11:24:20;;;;;;;16.08;4.90;;;21.60;99.90;;;;;;5018430;28;20109;-89
2022/10/28 11:27:05;;;;;;;18.67;5.35;;;21.70;99.90;;;;;;5018052;28;20099;-88
2022/10/28 11:29:34;;;;;;;12.68;4.35;;;21.70;99.90;;;;;;5018544;28;20029;-88
2022/10/28 11:32:06;;;;;;;17.40;4.65;;;21.80;99.90;;;;;;5017086;28;20477;-87
2022/10/28 11:34:53;;;;;;;17.63;4.97;;;21.80;99.90;;;;;;5017780;28;20052;-89
2022/10/28 11:37:46;;;;;;;16.10;4.38;;;21.90;99.90;;;;;;5034763;28;20069;-88
2022/10/28 11:40:21;;;;;;;13.00;4.43;;;21.90;99.90;;;;;;5000483;28;20052;-89
2022/10/28 11:43:14;;;;;;;15.18;4.43;;;21.90;99.90;;;;;;5017500;28;20057;-89
2022/10/28 11:46:06;;;;;;;17.00;4.07;;;22.00;99.90;;;;;;5018122;28;20491;-90
2022/10/28 11:49:08;;;;;;;14.13;4.07;;;22.10;99.90;;;;;;4998197;28;20033;-89
2022/10/28 11:51:43;;;;;;;15.18;5.68;;;22.20;99.70;;;;;;5005473;28;20059;-91
2022/10/28 11:54:14;;;;;;;13.82;4.55;;;22.20;99.60;;;;;;5018050;28;20051;-90
2022/10/28 11:56:54;;;;;;;12.65;4.18;;;22.20;99.40;;;;;;5017933;28;20025;-90
2022/10/28 11:59:42;;;;;;;11.93;3.85;;;22.30;99.70;;;;;;5018074;28;20037;-90
2022/10/28 12:02:40;;;;;;;15.00;4.70;;;22.40;99.60;;;;;;5018389;28;20095;-89
2022/10/28 12:05:23;;;;;;;15.90;4.95;;;22.40;99.80;;;;;;5018396;28;20022;-89
2022/10/28 12:08:10;;;;;;;11.98;4.05;;;22.50;99.90;;;;;;5018085;28;20031;-89
2022/10/28 12:11:06;;;;;;;12.35;4.47;;;22.50;99.90;;;;;;5017575;28;20116;-89
2022/10/28 12:13:43;;;;;;;12.13;4.65;;;22.50;99.30;;;;;;5017676;28;20036;-90
2022/10/28 12:16:29;;;;;;;20.33;4.78;;;22.60;99.60;;;;;;5017075;28;20025;-88
2022/10/28 12:19:11;;;;;;;19.27;4.40;;;22.60;99.60;;;;;;5017544;28;20033;-90
2022/10/28 12:21:42;;;;;;;16.77;4.85;;;22.60;99.60;;;;;;5017360;28;20025;-88
2022/10/28 12:24:17;;;;;;;14.90;4.50;;;22.70;99.50;;;;;;5015997;28;20033;-88
2022/10/28 12:26:49;;;;;;;15.05;4.43;;;22.70;99.60;;;;;;5016074;28;20028;-89
2022/10/28 12:29:21;;;;;;;14.52;4.40;;;22.80;99.10;;;;;;5016881;28;20061;-89
2022/10/28 12:31:58;;;;;;;12.88;3.83;;;22.80;99.20;;;;;;5033861;28;20021;-89
2022/10/28 12:34:31;;;;;;;12.35;3.58;;;22.80;99.10;;;;;;5016377;28;20124;-89
2022/10/28 12:37:12;;;;;;;19.00;4.03;;;22.90;99.10;;;;;;5016740;28;20021;-88
2022/10/28 12:39:44;;;;;;;13.50;4.00;;;22.90;99.00;;;;;;5016517;28;20072;-87
2022/10/28 12:42:17;;;;;;;16.50;4.35;;;22.90;98.40;;;;;;5016232;28;20466;-88
2022/10/28 12:44:48;;;;;;;12.13;3.47;;;23.00;98.60;;;;;;5016355;28;20376;-88
2022/10/28 12:47:26;;;;;;;14.20;3.90;;;23.00;98.40;;;;;;5015886;28;20032;-88
2022/10/28 12:50:07;;;;;;;13.48;4.35;;;23.10;98.00;;;;;;5015533;28;20030;-88
2022/10/28 12:52:51;;;;;;;11.85;3.90;;;23.10;97.90;;;;;;5027960;28;20384;-87
2022/10/28 12:55:38;;;;;;;12.40;3.58;;;23.10;97.80;;;;;;5035977;28;20025;-90
2022/10/28 12:58:31;;;;;;;17.63;4.13;;;23.20;97.50;;;;;;5035911;28;20036;-89
2022/10/28 13:01:06;;;;;;;12.60;3.95;;;23.20;96.60;;;;;;5036351;28;20036;-88
2022/10/28 13:03:32;;;;;;;14.77;4.07;;;23.20;96.80;;;;;;5035682;28;20040;-87
2022/10/28 13:06:06;;;;;;;13.63;5.13;;;23.20;96.70;;;;;;5035721;28;20473;-88
2022/10/28 13:08:57;;;;;;;12.68;3.75;;;23.20;96.20;;;;;;5016661;28;20368;-88
2022/10/28 13:11:39;;;;;;;15.43;4.63;;;23.20;96.50;;;;;;5017031;28;20496;-88
2022/10/28 13:14:34;;;;;;;12.13;4.30;;;23.20;96.30;;;;;;5034204;28;20385;-88
2022/10/28 13:17:00;;;;;;;12.98;3.85;;;23.20;96.40;;;;;;5014252;28;20041;-88
2022/10/28 13:19:53;;;;;;;12.50;3.65;;;23.20;96.00;;;;;;5016520;28;20030;-89
2022/10/28 13:22:50;;;;;;;16.48;4.22;;;23.20;95.70;;;;;;5024050;28;20040;-90
2022/10/28 13:25:47;;;;;;;16.75;4.43;;;23.20;95.90;;;;;;5035758;28;20025;-89
2022/10/28 13:28:18;;;;;;;15.45;4.10;;;23.10;95.50;;;;;;5021408;28;20029;-90
2022/10/28 13:31:20;;;;;;;14.13;3.75;;;23.10;95.80;;;;;;5016889;28;20384;-90